sensor_id;sensor_type;location;lat;lon;timestamp;P1;durP1;ratioP1;P2;durP2;ratioP2
68951;SDS011;56000;51.146;17.112;2024-03-29T00:00:34;3.20;;;2.00;;
68951;SDS011;56000;51.146;17.112;2024-03-29T00:03:26;4.50;;;2.50;;
68951;SDS011;56000;51.146;17.112;2024-03-29T00:05:59;3.60;;;2.40;;
68951;SDS011;56000;51.146;17.112;2024-03-29T00:08:31;5.50;;;2.60;;
68951;SDS011;56000;51.146;17.112;2024-03-29T00:11:04;4.80;;;2.80;;
68951;SDS011;56000;51.146;17.112;2024-03-29T00:13:36;5.00;;;2.60;;
68951;SDS011;56000;51.146;17.112;2024-03-29T00:16:08;2.60;;;2.00;;
68951;SDS011;56000;51.146;17.112;2024-03-29T00:18:41;6.10;;;2.70;;
68951;SDS011;56000;51.146;17.112;2024-03-29T00:21:13;3.50;;;2.30;;
68951;SDS011;56000;51.146;17.112;2024-03-29T00:23:45;4.40;;;2.50;;
68951;SDS011;56000;51.146;17.112;2024-03-29T00:26:20;5.70;;;2.90;;
68951;SDS011;56000;51.146;17.112;2024-03-29T00:28:53;4.20;;;2.30;;
68951;SDS011;56000;51.146;17.112;2024-03-29T00:31:25;3.70;;;2.60;;
68951;SDS011;56000;51.146;17.112;2024-03-29T00:33:57;3.60;;;2.10;;
68951;SDS011;56000;51.146;17.112;2024-03-29T00:36:30;3.70;;;2.60;;
68951;SDS011;56000;51.146;17.112;2024-03-29T00:39:02;4.00;;;2.50;;
68951;SDS011;56000;51.146;17.112;2024-03-29T00:41:35;4.20;;;2.30;;
68951;SDS011;56000;51.146;17.112;2024-03-29T00:44:07;3.90;;;2.30;;
68951;SDS011;56000;51.146;17.112;2024-03-29T00:46:39;4.80;;;2.30;;
68951;SDS011;56000;51.146;17.112;2024-03-29T00:49:12;2.40;;;1.80;;
68951;SDS011;56000;51.146;17.112;2024-03-29T00:51:44;3.30;;;2.20;;
68951;SDS011;56000;51.146;17.112;2024-03-29T00:54:17;3.20;;;1.90;;
68951;SDS011;56000;51.146;17.112;2024-03-29T00:56:49;3.00;;;2.30;;
68951;SDS011;56000;51.146;17.112;2024-03-29T00:59:22;2.90;;;2.10;;
68951;SDS011;56000;51.146;17.112;2024-03-29T01:01:54;2.80;;;2.30;;
68951;SDS011;56000;51.146;17.112;2024-03-29T01:04:26;3.90;;;2.30;;
68951;SDS011;56000;51.146;17.112;2024-03-29T01:06:58;3.10;;;2.00;;
68951;SDS011;56000;51.146;17.112;2024-03-29T01:09:31;3.10;;;2.50;;
68951;SDS011;56000;51.146;17.112;2024-03-29T01:12:03;5.80;;;2.40;;
68951;SDS011;56000;51.146;17.112;2024-03-29T01:14:36;4.90;;;2.10;;
68951;SDS011;56000;51.146;17.112;2024-03-29T01:17:08;2.80;;;2.10;;
68951;SDS011;56000;51.146;17.112;2024-03-29T01:19:41;3.50;;;1.90;;
68951;SDS011;56000;51.146;17.112;2024-03-29T01:22:13;3.20;;;2.30;;
68951;SDS011;56000;51.146;17.112;2024-03-29T01:24:45;2.70;;;2.20;;
68951;SDS011;56000;51.146;17.112;2024-03-29T01:27:18;3.30;;;1.90;;
68951;SDS011;56000;51.146;17.112;2024-03-29T01:29:50;3.70;;;2.20;;
68951;SDS011;56000;51.146;17.112;2024-03-29T01:32:23;4.20;;;2.40;;
68951;SDS011;56000;51.146;17.112;2024-03-29T01:34:55;3.70;;;2.00;;
68951;SDS011;56000;51.146;17.112;2024-03-29T01:37:27;4.90;;;2.30;;
68951;SDS011;56000;51.146;17.112;2024-03-29T01:40:00;3.40;;;2.00;;
68951;SDS011;56000;51.146;17.112;2024-03-29T01:42:33;4.50;;;2.50;;
68951;SDS011;56000;51.146;17.112;2024-03-29T01:45:06;3.40;;;2.30;;
68951;SDS011;56000;51.146;17.112;2024-03-29T01:47:39;4.10;;;2.10;;
68951;SDS011;56000;51.146;17.112;2024-03-29T01:50:12;4.20;;;2.30;;
68951;SDS011;56000;51.146;17.112;2024-03-29T01:52:44;2.80;;;1.90;;
68951;SDS011;56000;51.146;17.112;2024-03-29T01:55:17;2.50;;;2.20;;
68951;SDS011;56000;51.146;17.112;2024-03-29T01:57:50;3.10;;;2.10;;
68951;SDS011;56000;51.146;17.112;2024-03-29T02:00:23;3.00;;;2.30;;
68951;SDS011;56000;51.146;17.112;2024-03-29T02:02:57;3.50;;;2.10;;
68951;SDS011;56000;51.146;17.112;2024-03-29T02:05:30;1.90;;;1.80;;
68951;SDS011;56000;51.146;17.112;2024-03-29T02:08:02;3.20;;;2.40;;
68951;SDS011;56000;51.146;17.112;2024-03-29T02:10:36;2.70;;;2.00;;
68951;SDS011;56000;51.146;17.112;2024-03-29T02:13:09;2.80;;;2.20;;
68951;SDS011;56000;51.146;17.112;2024-03-29T02:15:41;3.50;;;1.90;;
68951;SDS011;56000;51.146;17.112;2024-03-29T02:18:14;4.00;;;2.40;;
68951;SDS011;56000;51.146;17.112;2024-03-29T02:20:50;2.80;;;2.00;;
68951;SDS011;56000;51.146;17.112;2024-03-29T02:23:29;5.40;;;2.20;;
68951;SDS011;56000;51.146;17.112;2024-03-29T02:26:03;3.40;;;2.20;;
68951;SDS011;56000;51.146;17.112;2024-03-29T02:28:36;2.10;;;1.80;;
68951;SDS011;56000;51.146;17.112;2024-03-29T02:31:08;3.20;;;2.30;;
68951;SDS011;56000;51.146;17.112;2024-03-29T02:33:40;3.30;;;2.00;;
68951;SDS011;56000;51.146;17.112;2024-03-29T02:36:13;3.40;;;2.10;;
68951;SDS011;56000;51.146;17.112;2024-03-29T02:38:45;3.10;;;2.00;;
68951;SDS011;56000;51.146;17.112;2024-03-29T02:41:17;3.20;;;2.10;;
68951;SDS011;56000;51.146;17.112;2024-03-29T02:43:50;2.70;;;2.00;;
68951;SDS011;56000;51.146;17.112;2024-03-29T02:46:23;2.70;;;2.10;;
68951;SDS011;56000;51.146;17.112;2024-03-29T02:48:55;1.90;;;1.80;;
68951;SDS011;56000;51.146;17.112;2024-03-29T02:51:28;2.70;;;2.10;;
68951;SDS011;56000;51.146;17.112;2024-03-29T02:54:02;2.60;;;1.90;;
68951;SDS011;56000;51.146;17.112;2024-03-29T02:56:35;2.30;;;2.00;;
68951;SDS011;56000;51.146;17.112;2024-03-29T02:59:07;4.00;;;1.90;;
68951;SDS011;56000;51.146;17.112;2024-03-29T03:01:40;3.50;;;1.80;;
68951;SDS011;56000;51.146;17.112;2024-03-29T03:04:13;3.80;;;2.10;;
68951;SDS011;56000;51.146;17.112;2024-03-29T03:06:45;3.30;;;2.30;;
68951;SDS011;56000;51.146;17.112;2024-03-29T03:09:17;3.70;;;2.20;;
68951;SDS011;56000;51.146;17.112;2024-03-29T03:12:08;2.90;;;2.20;;
68951;SDS011;56000;51.146;17.112;2024-03-29T03:14:43;6.20;;;2.30;;
68951;SDS011;56000;51.146;17.112;2024-03-29T03:17:16;2.80;;;2.30;;
68951;SDS011;56000;51.146;17.112;2024-03-29T03:19:48;2.40;;;2.20;;
68951;SDS011;56000;51.146;17.112;2024-03-29T03:22:23;7.40;;;2.50;;
68951;SDS011;56000;51.146;17.112;2024-03-29T03:24:56;3.10;;;2.40;;
68951;SDS011;56000;51.146;17.112;2024-03-29T03:27:28;5.00;;;2.40;;
68951;SDS011;56000;51.146;17.112;2024-03-29T03:30:00;4.10;;;2.60;;
68951;SDS011;56000;51.146;17.112;2024-03-29T03:32:33;6.00;;;2.50;;
68951;SDS011;56000;51.146;17.112;2024-03-29T03:35:07;3.40;;;2.30;;
68951;SDS011;56000;51.146;17.112;2024-03-29T03:37:39;4.50;;;2.50;;
68951;SDS011;56000;51.146;17.112;2024-03-29T03:40:12;2.90;;;2.50;;
68951;SDS011;56000;51.146;17.112;2024-03-29T03:42:45;4.80;;;2.20;;
68951;SDS011;56000;51.146;17.112;2024-03-29T03:45:17;3.80;;;2.60;;
68951;SDS011;56000;51.146;17.112;2024-03-29T03:47:49;8.20;;;2.70;;
68951;SDS011;56000;51.146;17.112;2024-03-29T03:50:22;3.20;;;2.60;;
68951;SDS011;56000;51.146;17.112;2024-03-29T03:52:54;3.20;;;2.60;;
68951;SDS011;56000;51.146;17.112;2024-03-29T03:55:27;4.80;;;2.70;;
68951;SDS011;56000;51.146;17.112;2024-03-29T03:58:01;18.10;;;13.60;;
68951;SDS011;56000;51.146;17.112;2024-03-29T04:00:34;28.30;;;22.80;;
68951;SDS011;56000;51.146;17.112;2024-03-29T04:03:06;37.10;;;27.80;;
68951;SDS011;56000;51.146;17.112;2024-03-29T04:05:39;35.60;;;24.00;;
68951;SDS011;56000;51.146;17.112;2024-03-29T04:08:11;23.00;;;16.00;;
68951;SDS011;56000;51.146;17.112;2024-03-29T04:10:45;15.80;;;9.60;;
68951;SDS011;56000;51.146;17.112;2024-03-29T04:13:19;10.70;;;4.90;;
68951;SDS011;56000;51.146;17.112;2024-03-29T04:15:51;8.20;;;4.20;;
68951;SDS011;56000;51.146;17.112;2024-03-29T04:18:23;3.60;;;2.70;;
68951;SDS011;56000;51.146;17.112;2024-03-29T04:21:00;4.10;;;2.50;;
68951;SDS011;56000;51.146;17.112;2024-03-29T04:23:33;3.10;;;2.10;;
68951;SDS011;56000;51.146;17.112;2024-03-29T04:26:07;4.10;;;2.50;;
68951;SDS011;56000;51.146;17.112;2024-03-29T04:28:39;3.80;;;2.40;;
68951;SDS011;56000;51.146;17.112;2024-03-29T04:31:12;3.80;;;2.00;;
68951;SDS011;56000;51.146;17.112;2024-03-29T04:33:44;3.90;;;2.20;;
68951;SDS011;56000;51.146;17.112;2024-03-29T04:36:16;3.90;;;2.20;;
68951;SDS011;56000;51.146;17.112;2024-03-29T04:38:49;4.30;;;3.00;;
68951;SDS011;56000;51.146;17.112;2024-03-29T04:41:21;4.90;;;3.00;;
68951;SDS011;56000;51.146;17.112;2024-03-29T04:43:53;5.20;;;3.00;;
68951;SDS011;56000;51.146;17.112;2024-03-29T04:46:26;3.20;;;2.50;;
68951;SDS011;56000;51.146;17.112;2024-03-29T04:48:59;4.60;;;2.30;;
68951;SDS011;56000;51.146;17.112;2024-03-29T04:51:32;5.60;;;2.20;;
68951;SDS011;56000;51.146;17.112;2024-03-29T04:54:04;3.50;;;2.40;;
68951;SDS011;56000;51.146;17.112;2024-03-29T04:56:37;2.90;;;2.40;;
68951;SDS011;56000;51.146;17.112;2024-03-29T04:59:09;4.40;;;2.60;;
68951;SDS011;56000;51.146;17.112;2024-03-29T05:01:43;5.20;;;2.50;;
68951;SDS011;56000;51.146;17.112;2024-03-29T05:04:19;8.60;;;2.50;;
68951;SDS011;56000;51.146;17.112;2024-03-29T05:06:56;3.30;;;2.20;;
68951;SDS011;56000;51.146;17.112;2024-03-29T05:09:29;2.10;;;1.80;;
68951;SDS011;56000;51.146;17.112;2024-03-29T05:12:01;4.50;;;2.20;;
68951;SDS011;56000;51.146;17.112;2024-03-29T05:14:34;2.20;;;2.00;;
68951;SDS011;56000;51.146;17.112;2024-03-29T05:17:06;4.60;;;2.30;;
68951;SDS011;56000;51.146;17.112;2024-03-29T05:19:39;6.70;;;2.40;;
68951;SDS011;56000;51.146;17.112;2024-03-29T05:22:11;5.60;;;2.50;;
68951;SDS011;56000;51.146;17.112;2024-03-29T05:24:44;5.10;;;2.40;;
68951;SDS011;56000;51.146;17.112;2024-03-29T05:27:16;7.30;;;2.70;;
68951;SDS011;56000;51.146;17.112;2024-03-29T05:29:48;4.90;;;2.50;;
68951;SDS011;56000;51.146;17.112;2024-03-29T05:32:21;9.80;;;2.20;;
68951;SDS011;56000;51.146;17.112;2024-03-29T05:34:53;4.80;;;2.50;;
68951;SDS011;56000;51.146;17.112;2024-03-29T05:37:25;3.60;;;2.20;;
68951;SDS011;56000;51.146;17.112;2024-03-29T05:39:58;4.40;;;2.30;;
68951;SDS011;56000;51.146;17.112;2024-03-29T05:42:31;3.30;;;2.30;;
68951;SDS011;56000;51.146;17.112;2024-03-29T05:45:20;6.70;;;2.90;;
68951;SDS011;56000;51.146;17.112;2024-03-29T05:47:57;5.30;;;3.00;;
68951;SDS011;56000;51.146;17.112;2024-03-29T05:50:29;5.50;;;2.00;;
68951;SDS011;56000;51.146;17.112;2024-03-29T05:53:03;3.80;;;2.10;;
68951;SDS011;56000;51.146;17.112;2024-03-29T05:55:35;3.80;;;1.90;;
68951;SDS011;56000;51.146;17.112;2024-03-29T05:58:08;3.60;;;2.20;;
68951;SDS011;56000;51.146;17.112;2024-03-29T06:00:40;5.70;;;2.70;;
68951;SDS011;56000;51.146;17.112;2024-03-29T06:03:13;3.70;;;2.40;;
68951;SDS011;56000;51.146;17.112;2024-03-29T06:05:45;5.80;;;2.80;;
68951;SDS011;56000;51.146;17.112;2024-03-29T06:08:18;5.20;;;2.70;;
68951;SDS011;56000;51.146;17.112;2024-03-29T06:10:50;4.00;;;2.20;;
68951;SDS011;56000;51.146;17.112;2024-03-29T06:13:26;5.80;;;2.50;;
68951;SDS011;56000;51.146;17.112;2024-03-29T06:16:20;3.60;;;2.10;;
68951;SDS011;56000;51.146;17.112;2024-03-29T06:19:12;3.60;;;2.00;;
68951;SDS011;56000;51.146;17.112;2024-03-29T06:21:45;3.60;;;2.10;;
68951;SDS011;56000;51.146;17.112;2024-03-29T06:24:18;6.70;;;2.50;;
68951;SDS011;56000;51.146;17.112;2024-03-29T06:26:50;4.10;;;2.50;;
68951;SDS011;56000;51.146;17.112;2024-03-29T06:29:23;2.70;;;2.10;;
68951;SDS011;56000;51.146;17.112;2024-03-29T06:31:56;3.60;;;1.80;;
68951;SDS011;56000;51.146;17.112;2024-03-29T06:34:30;3.50;;;1.80;;
68951;SDS011;56000;51.146;17.112;2024-03-29T06:37:02;5.40;;;2.00;;
68951;SDS011;56000;51.146;17.112;2024-03-29T06:39:37;2.90;;;2.00;;
68951;SDS011;56000;51.146;17.112;2024-03-29T06:42:09;3.50;;;1.80;;
68951;SDS011;56000;51.146;17.112;2024-03-29T06:44:42;2.10;;;1.40;;
68951;SDS011;56000;51.146;17.112;2024-03-29T06:47:14;4.30;;;1.90;;
68951;SDS011;56000;51.146;17.112;2024-03-29T06:49:47;7.10;;;2.10;;
68951;SDS011;56000;51.146;17.112;2024-03-29T06:52:19;4.70;;;1.80;;
68951;SDS011;56000;51.146;17.112;2024-03-29T06:54:51;4.60;;;2.00;;
68951;SDS011;56000;51.146;17.112;2024-03-29T06:57:24;3.30;;;1.80;;
68951;SDS011;56000;51.146;17.112;2024-03-29T07:00:00;2.70;;;1.70;;
68951;SDS011;56000;51.146;17.112;2024-03-29T07:02:33;2.70;;;1.40;;
68951;SDS011;56000;51.146;17.112;2024-03-29T07:05:07;4.20;;;1.70;;
68951;SDS011;56000;51.146;17.112;2024-03-29T07:07:41;2.00;;;1.60;;
68951;SDS011;56000;51.146;17.112;2024-03-29T07:10:16;4.00;;;1.50;;
68951;SDS011;56000;51.146;17.112;2024-03-29T07:12:49;4.00;;;1.80;;
68951;SDS011;56000;51.146;17.112;2024-03-29T07:15:21;2.50;;;1.60;;
68951;SDS011;56000;51.146;17.112;2024-03-29T07:17:54;1.80;;;1.30;;
68951;SDS011;56000;51.146;17.112;2024-03-29T07:20:27;2.80;;;1.60;;
68951;SDS011;56000;51.146;17.112;2024-03-29T07:23:00;3.60;;;2.40;;
68951;SDS011;56000;51.146;17.112;2024-03-29T07:25:32;3.10;;;1.60;;
68951;SDS011;56000;51.146;17.112;2024-03-29T07:28:05;2.00;;;1.50;;
68951;SDS011;56000;51.146;17.112;2024-03-29T07:30:39;2.30;;;1.50;;
68951;SDS011;56000;51.146;17.112;2024-03-29T07:33:11;3.40;;;1.50;;
68951;SDS011;56000;51.146;17.112;2024-03-29T07:35:44;2.30;;;1.40;;
68951;SDS011;56000;51.146;17.112;2024-03-29T07:38:17;3.70;;;1.80;;
68951;SDS011;56000;51.146;17.112;2024-03-29T07:40:50;5.50;;;1.90;;
68951;SDS011;56000;51.146;17.112;2024-03-29T07:43:24;3.20;;;1.60;;
68951;SDS011;56000;51.146;17.112;2024-03-29T07:45:56;2.50;;;1.30;;
68951;SDS011;56000;51.146;17.112;2024-03-29T07:48:28;1.70;;;1.30;;
68951;SDS011;56000;51.146;17.112;2024-03-29T07:51:01;1.90;;;1.50;;
68951;SDS011;56000;51.146;17.112;2024-03-29T07:53:33;3.50;;;1.20;;
68951;SDS011;56000;51.146;17.112;2024-03-29T07:56:08;4.50;;;1.30;;
68951;SDS011;56000;51.146;17.112;2024-03-29T07:58:40;2.90;;;1.60;;
68951;SDS011;56000;51.146;17.112;2024-03-29T08:01:19;7.40;;;1.60;;
68951;SDS011;56000;51.146;17.112;2024-03-29T08:03:57;5.30;;;1.40;;
68951;SDS011;56000;51.146;17.112;2024-03-29T08:06:30;7.30;;;1.50;;
68951;SDS011;56000;51.146;17.112;2024-03-29T08:09:03;2.10;;;1.60;;
68951;SDS011;56000;51.146;17.112;2024-03-29T08:11:36;4.90;;;1.70;;
68951;SDS011;56000;51.146;17.112;2024-03-29T08:14:09;2.90;;;1.80;;
68951;SDS011;56000;51.146;17.112;2024-03-29T08:16:41;5.10;;;2.50;;
68951;SDS011;56000;51.146;17.112;2024-03-29T08:19:14;3.40;;;1.40;;
68951;SDS011;56000;51.146;17.112;2024-03-29T08:21:46;2.40;;;1.20;;
68951;SDS011;56000;51.146;17.112;2024-03-29T08:24:19;3.60;;;1.40;;
68951;SDS011;56000;51.146;17.112;2024-03-29T08:26:51;4.30;;;1.30;;
68951;SDS011;56000;51.146;17.112;2024-03-29T08:29:24;4.40;;;1.60;;
68951;SDS011;56000;51.146;17.112;2024-03-29T08:31:56;4.50;;;1.70;;
68951;SDS011;56000;51.146;17.112;2024-03-29T08:34:28;6.80;;;1.80;;
68951;SDS011;56000;51.146;17.112;2024-03-29T08:37:04;4.70;;;2.20;;
68951;SDS011;56000;51.146;17.112;2024-03-29T08:39:36;4.00;;;1.50;;
68951;SDS011;56000;51.146;17.112;2024-03-29T08:42:09;2.90;;;1.40;;
68951;SDS011;56000;51.146;17.112;2024-03-29T08:44:41;4.00;;;1.80;;
68951;SDS011;56000;51.146;17.112;2024-03-29T08:47:14;2.70;;;1.30;;
68951;SDS011;56000;51.146;17.112;2024-03-29T08:49:46;5.30;;;1.40;;
68951;SDS011;56000;51.146;17.112;2024-03-29T08:52:19;2.80;;;1.40;;
68951;SDS011;56000;51.146;17.112;2024-03-29T08:54:52;3.10;;;1.50;;
68951;SDS011;56000;51.146;17.112;2024-03-29T08:57:24;2.50;;;1.40;;
68951;SDS011;56000;51.146;17.112;2024-03-29T08:59:56;2.00;;;1.20;;
68951;SDS011;56000;51.146;17.112;2024-03-29T09:02:29;5.80;;;1.50;;
68951;SDS011;56000;51.146;17.112;2024-03-29T09:05:01;4.50;;;1.30;;
68951;SDS011;56000;51.146;17.112;2024-03-29T09:07:34;5.80;;;1.30;;
68951;SDS011;56000;51.146;17.112;2024-03-29T09:10:08;5.50;;;1.40;;
68951;SDS011;56000;51.146;17.112;2024-03-29T09:12:41;3.30;;;1.50;;
68951;SDS011;56000;51.146;17.112;2024-03-29T09:15:13;2.90;;;1.30;;
68951;SDS011;56000;51.146;17.112;2024-03-29T09:17:46;3.30;;;1.40;;
68951;SDS011;56000;51.146;17.112;2024-03-29T09:20:19;4.70;;;1.60;;
68951;SDS011;56000;51.146;17.112;2024-03-29T09:22:52;6.80;;;1.60;;
68951;SDS011;56000;51.146;17.112;2024-03-29T09:25:25;5.50;;;1.50;;
68951;SDS011;56000;51.146;17.112;2024-03-29T09:27:57;3.90;;;1.30;;
68951;SDS011;56000;51.146;17.112;2024-03-29T09:30:30;5.30;;;1.40;;
68951;SDS011;56000;51.146;17.112;2024-03-29T09:33:02;2.10;;;1.10;;
68951;SDS011;56000;51.146;17.112;2024-03-29T09:35:36;2.20;;;1.40;;
68951;SDS011;56000;51.146;17.112;2024-03-29T09:38:09;7.70;;;1.20;;
68951;SDS011;56000;51.146;17.112;2024-03-29T09:40:41;4.20;;;1.80;;
68951;SDS011;56000;51.146;17.112;2024-03-29T09:43:13;6.60;;;1.50;;
68951;SDS011;56000;51.146;17.112;2024-03-29T09:45:58;5.00;;;1.40;;
68951;SDS011;56000;51.146;17.112;2024-03-29T09:48:31;3.60;;;1.50;;
68951;SDS011;56000;51.146;17.112;2024-03-29T09:51:07;3.10;;;1.20;;
68951;SDS011;56000;51.146;17.112;2024-03-29T09:53:43;5.00;;;1.30;;
68951;SDS011;56000;51.146;17.112;2024-03-29T09:56:16;3.40;;;1.60;;
68951;SDS011;56000;51.146;17.112;2024-03-29T09:58:48;1.60;;;1.30;;
68951;SDS011;56000;51.146;17.112;2024-03-29T10:01:21;2.60;;;1.30;;
68951;SDS011;56000;51.146;17.112;2024-03-29T10:03:53;2.70;;;1.70;;
68951;SDS011;56000;51.146;17.112;2024-03-29T10:06:26;2.60;;;1.50;;
68951;SDS011;56000;51.146;17.112;2024-03-29T10:09:00;8.40;;;1.60;;
68951;SDS011;56000;51.146;17.112;2024-03-29T10:11:33;3.00;;;1.50;;
68951;SDS011;56000;51.146;17.112;2024-03-29T10:14:06;2.20;;;1.30;;
68951;SDS011;56000;51.146;17.112;2024-03-29T10:16:38;5.90;;;1.60;;
68951;SDS011;56000;51.146;17.112;2024-03-29T10:19:12;7.10;;;1.50;;
68951;SDS011;56000;51.146;17.112;2024-03-29T10:21:47;3.30;;;1.20;;
68951;SDS011;56000;51.146;17.112;2024-03-29T10:24:20;3.00;;;1.40;;
68951;SDS011;56000;51.146;17.112;2024-03-29T10:26:52;3.60;;;1.20;;
68951;SDS011;56000;51.146;17.112;2024-03-29T10:29:30;2.30;;;1.40;;
68951;SDS011;56000;51.146;17.112;2024-03-29T10:32:03;1.50;;;1.20;;
68951;SDS011;56000;51.146;17.112;2024-03-29T10:34:36;4.90;;;1.70;;
68951;SDS011;56000;51.146;17.112;2024-03-29T10:37:09;2.10;;;1.40;;
68951;SDS011;56000;51.146;17.112;2024-03-29T10:39:44;5.60;;;1.60;;
68951;SDS011;56000;51.146;17.112;2024-03-29T10:42:17;2.80;;;1.50;;
68951;SDS011;56000;51.146;17.112;2024-03-29T10:44:52;3.80;;;1.80;;
68951;SDS011;56000;51.146;17.112;2024-03-29T10:47:25;3.80;;;2.00;;
68951;SDS011;56000;51.146;17.112;2024-03-29T10:49:59;2.10;;;1.40;;
68951;SDS011;56000;51.146;17.112;2024-03-29T10:52:34;4.50;;;1.90;;
68951;SDS011;56000;51.146;17.112;2024-03-29T10:55:10;4.00;;;1.90;;
68951;SDS011;56000;51.146;17.112;2024-03-29T10:57:43;3.50;;;1.30;;
68951;SDS011;56000;51.146;17.112;2024-03-29T11:00:21;3.30;;;1.50;;
68951;SDS011;56000;51.146;17.112;2024-03-29T11:02:57;1.90;;;1.20;;
68951;SDS011;56000;51.146;17.112;2024-03-29T11:05:37;2.30;;;1.20;;
68951;SDS011;56000;51.146;17.112;2024-03-29T11:08:11;4.40;;;1.40;;
68951;SDS011;56000;51.146;17.112;2024-03-29T11:10:45;1.30;;;1.00;;
68951;SDS011;56000;51.146;17.112;2024-03-29T11:13:25;1.40;;;1.30;;
68951;SDS011;56000;51.146;17.112;2024-03-29T11:16:02;5.70;;;1.30;;
68951;SDS011;56000;51.146;17.112;2024-03-29T11:18:35;2.80;;;1.40;;
68951;SDS011;56000;51.146;17.112;2024-03-29T11:21:11;3.10;;;1.20;;
68951;SDS011;56000;51.146;17.112;2024-03-29T11:23:51;3.10;;;1.10;;
68951;SDS011;56000;51.146;17.112;2024-03-29T11:26:25;5.90;;;1.20;;
68951;SDS011;56000;51.146;17.112;2024-03-29T11:28:57;4.50;;;1.20;;
68951;SDS011;56000;51.146;17.112;2024-03-29T11:31:30;7.20;;;1.30;;
68951;SDS011;56000;51.146;17.112;2024-03-29T11:34:09;5.50;;;1.20;;
68951;SDS011;56000;51.146;17.112;2024-03-29T11:36:42;6.80;;;1.30;;
68951;SDS011;56000;51.146;17.112;2024-03-29T11:39:22;3.90;;;1.10;;
68951;SDS011;56000;51.146;17.112;2024-03-29T11:41:56;2.20;;;1.10;;
68951;SDS011;56000;51.146;17.112;2024-03-29T11:44:36;3.10;;;1.00;;
68951;SDS011;56000;51.146;17.112;2024-03-29T11:47:09;2.00;;;1.00;;
68951;SDS011;56000;51.146;17.112;2024-03-29T11:49:42;2.10;;;1.00;;
68951;SDS011;56000;51.146;17.112;2024-03-29T11:52:15;7.80;;;1.30;;
68951;SDS011;56000;51.146;17.112;2024-03-29T11:54:50;1.60;;;1.10;;
68951;SDS011;56000;51.146;17.112;2024-03-29T11:57:24;3.10;;;0.90;;
68951;SDS011;56000;51.146;17.112;2024-03-29T11:59:56;2.00;;;1.30;;
68951;SDS011;56000;51.146;17.112;2024-03-29T12:02:28;2.00;;;1.10;;
68951;SDS011;56000;51.146;17.112;2024-03-29T12:05:06;1.30;;;0.90;;
68951;SDS011;56000;51.146;17.112;2024-03-29T12:07:39;2.10;;;1.20;;
68951;SDS011;56000;51.146;17.112;2024-03-29T12:10:14;4.60;;;1.30;;
68951;SDS011;56000;51.146;17.112;2024-03-29T12:12:47;3.90;;;1.20;;
68951;SDS011;56000;51.146;17.112;2024-03-29T12:15:20;5.80;;;2.00;;
68951;SDS011;56000;51.146;17.112;2024-03-29T12:17:56;0.90;;;0.90;;
68951;SDS011;56000;51.146;17.112;2024-03-29T12:20:29;2.20;;;1.10;;
68951;SDS011;56000;51.146;17.112;2024-03-29T12:23:02;3.10;;;1.20;;
68951;SDS011;56000;51.146;17.112;2024-03-29T12:25:36;4.30;;;1.50;;
68951;SDS011;56000;51.146;17.112;2024-03-29T12:28:12;1.30;;;1.20;;
68951;SDS011;56000;51.146;17.112;2024-03-29T12:30:47;3.50;;;1.30;;
68951;SDS011;56000;51.146;17.112;2024-03-29T12:33:20;3.90;;;1.20;;
68951;SDS011;56000;51.146;17.112;2024-03-29T12:35:54;1.80;;;1.00;;
68951;SDS011;56000;51.146;17.112;2024-03-29T12:38:26;1.20;;;0.80;;
68951;SDS011;56000;51.146;17.112;2024-03-29T12:41:00;2.30;;;1.00;;
68951;SDS011;56000;51.146;17.112;2024-03-29T12:43:36;2.70;;;1.70;;
68951;SDS011;56000;51.146;17.112;2024-03-29T12:46:08;3.50;;;1.20;;
68951;SDS011;56000;51.146;17.112;2024-03-29T12:48:42;2.90;;;1.10;;
68951;SDS011;56000;51.146;17.112;2024-03-29T12:51:14;3.40;;;1.10;;
68951;SDS011;56000;51.146;17.112;2024-03-29T12:53:50;2.80;;;1.30;;
68951;SDS011;56000;51.146;17.112;2024-03-29T12:56:22;1.70;;;0.90;;
68951;SDS011;56000;51.146;17.112;2024-03-29T12:58:55;3.10;;;1.00;;
68951;SDS011;56000;51.146;17.112;2024-03-29T13:01:27;2.70;;;0.90;;
68951;SDS011;56000;51.146;17.112;2024-03-29T13:03:59;1.60;;;0.90;;
68951;SDS011;56000;51.146;17.112;2024-03-29T13:06:31;5.70;;;1.30;;
68951;SDS011;56000;51.146;17.112;2024-03-29T13:09:04;1.60;;;1.10;;
68951;SDS011;56000;51.146;17.112;2024-03-29T13:11:39;2.20;;;1.40;;
68951;SDS011;56000;51.146;17.112;2024-03-29T13:14:12;3.90;;;1.30;;
68951;SDS011;56000;51.146;17.112;2024-03-29T13:16:44;1.90;;;1.40;;
68951;SDS011;56000;51.146;17.112;2024-03-29T13:19:16;2.20;;;1.20;;
68951;SDS011;56000;51.146;17.112;2024-03-29T13:21:49;3.50;;;1.30;;
68951;SDS011;56000;51.146;17.112;2024-03-29T13:24:21;1.20;;;1.10;;
68951;SDS011;56000;51.146;17.112;2024-03-29T13:26:54;6.90;;;1.10;;
68951;SDS011;56000;51.146;17.112;2024-03-29T13:29:26;3.90;;;1.20;;
68951;SDS011;56000;51.146;17.112;2024-03-29T13:31:59;3.70;;;1.40;;
68951;SDS011;56000;51.146;17.112;2024-03-29T13:34:32;2.80;;;1.20;;
68951;SDS011;56000;51.146;17.112;2024-03-29T13:37:05;3.10;;;0.90;;
68951;SDS011;56000;51.146;17.112;2024-03-29T13:39:37;5.30;;;1.10;;
68951;SDS011;56000;51.146;17.112;2024-03-29T13:42:10;3.90;;;1.40;;
68951;SDS011;56000;51.146;17.112;2024-03-29T13:44:42;2.30;;;1.30;;
68951;SDS011;56000;51.146;17.112;2024-03-29T13:47:14;2.80;;;1.70;;
68951;SDS011;56000;51.146;17.112;2024-03-29T13:49:47;2.50;;;1.20;;
68951;SDS011;56000;51.146;17.112;2024-03-29T13:52:22;3.30;;;1.40;;
68951;SDS011;56000;51.146;17.112;2024-03-29T13:54:56;4.50;;;1.70;;
68951;SDS011;56000;51.146;17.112;2024-03-29T13:57:28;3.30;;;1.50;;
68951;SDS011;56000;51.146;17.112;2024-03-29T14:00:01;4.80;;;1.50;;
68951;SDS011;56000;51.146;17.112;2024-03-29T14:02:35;6.50;;;2.10;;
68951;SDS011;56000;51.146;17.112;2024-03-29T14:05:08;46.60;;;20.00;;
68951;SDS011;56000;51.146;17.112;2024-03-29T14:07:40;9.60;;;4.30;;
68951;SDS011;56000;51.146;17.112;2024-03-29T14:10:12;2.00;;;1.30;;
68951;SDS011;56000;51.146;17.112;2024-03-29T14:12:45;2.50;;;1.40;;
68951;SDS011;56000;51.146;17.112;2024-03-29T14:15:20;2.20;;;1.40;;
68951;SDS011;56000;51.146;17.112;2024-03-29T14:17:54;5.80;;;1.60;;
68951;SDS011;56000;51.146;17.112;2024-03-29T14:20:27;1.60;;;1.20;;
68951;SDS011;56000;51.146;17.112;2024-03-29T14:22:59;3.70;;;1.70;;
68951;SDS011;56000;51.146;17.112;2024-03-29T14:25:35;2.40;;;1.20;;
68951;SDS011;56000;51.146;17.112;2024-03-29T14:28:08;3.90;;;2.50;;
68951;SDS011;56000;51.146;17.112;2024-03-29T14:30:40;16.50;;;7.00;;
68951;SDS011;56000;51.146;17.112;2024-03-29T14:33:13;3.10;;;1.60;;
68951;SDS011;56000;51.146;17.112;2024-03-29T14:35:45;1.90;;;1.40;;
68951;SDS011;56000;51.146;17.112;2024-03-29T14:38:19;6.10;;;2.80;;
68951;SDS011;56000;51.146;17.112;2024-03-29T14:40:51;19.60;;;7.60;;
68951;SDS011;56000;51.146;17.112;2024-03-29T14:43:24;3.90;;;2.10;;
68951;SDS011;56000;51.146;17.112;2024-03-29T14:45:57;7.20;;;2.90;;
68951;SDS011;56000;51.146;17.112;2024-03-29T14:48:30;4.00;;;2.20;;
68951;SDS011;56000;51.146;17.112;2024-03-29T14:51:02;6.60;;;1.40;;
68951;SDS011;56000;51.146;17.112;2024-03-29T14:53:35;1.20;;;1.10;;
68951;SDS011;56000;51.146;17.112;2024-03-29T14:56:07;1.60;;;1.40;;
68951;SDS011;56000;51.146;17.112;2024-03-29T15:01:17;1.30;;;1.20;;
68951;SDS011;56000;51.146;17.112;2024-03-29T15:03:52;2.60;;;1.10;;
68951;SDS011;56000;51.146;17.112;2024-03-29T15:06:25;1.20;;;1.10;;
68951;SDS011;56000;51.146;17.112;2024-03-29T15:08:59;1.70;;;1.10;;
68951;SDS011;56000;51.146;17.112;2024-03-29T15:11:32;1.70;;;1.20;;